sensor_id;sensor_type;location;lat;lon;timestamp;temperature;humidity
39655;DHT22;25336;59.944;11.010;2023-01-16T00:01:55;1.40;75.50
39655;DHT22;25336;59.944;11.010;2023-01-16T00:04:22;1.40;75.50
39655;DHT22;25336;59.944;11.010;2023-01-16T00:06:47;1.30;75.50
39655;DHT22;25336;59.944;11.010;2023-01-16T00:09:13;1.30;75.40
39655;DHT22;25336;59.944;11.010;2023-01-16T00:11:39;1.30;75.40
39655;DHT22;25336;59.944;11.010;2023-01-16T00:14:05;1.20;75.40
39655;DHT22;25336;59.944;11.010;2023-01-16T00:16:31;1.20;75.40
39655;DHT22;25336;59.944;11.010;2023-01-16T00:18:57;1.20;75.50
39655;DHT22;25336;59.944;11.010;2023-01-16T00:21:23;1.20;75.60
39655;DHT22;25336;59.944;11.010;2023-01-16T00:23:55;1.10;75.60
39655;DHT22;25336;59.944;11.010;2023-01-16T00:26:21;0.20;75.10
39655;DHT22;25336;59.944;11.010;2023-01-16T00:28:47;1.10;75.60
39655;DHT22;25336;59.944;11.010;2023-01-16T00:31:13;1.10;75.60
39655;DHT22;25336;59.944;11.010;2023-01-16T00:33:38;1.10;75.70
39655;DHT22;25336;59.944;11.010;2023-01-16T00:36:04;1.00;75.70
39655;DHT22;25336;59.944;11.010;2023-01-16T00:38:30;1.00;75.80
39655;DHT22;25336;59.944;11.010;2023-01-16T00:40:56;1.00;75.80
39655;DHT22;25336;59.944;11.010;2023-01-16T00:43:22;2.30;76.70
39655;DHT22;25336;59.944;11.010;2023-01-16T00:45:48;0.90;75.70
39655;DHT22;25336;59.944;11.010;2023-01-16T00:48:13;0.90;75.70
39655;DHT22;25336;59.944;11.010;2023-01-16T00:50:39;0.90;75.70
39655;DHT22;25336;59.944;11.010;2023-01-16T00:53:05;0.90;75.80
39655;DHT22;25336;59.944;11.010;2023-01-16T00:55:33;0.80;75.60
39655;DHT22;25336;59.944;11.010;2023-01-16T00:57:59;0.80;75.60
39655;DHT22;25336;59.944;11.010;2023-01-16T01:00:25;0.70;75.50
39655;DHT22;25336;59.944;11.010;2023-01-16T01:02:51;0.70;75.50
39655;DHT22;25336;59.944;11.010;2023-01-16T01:05:17;0.70;75.50
39655;DHT22;25336;59.944;11.010;2023-01-16T01:07:42;0.70;75.60
39655;DHT22;25336;59.944;11.010;2023-01-16T01:10:09;0.70;75.60
39655;DHT22;25336;59.944;11.010;2023-01-16T01:12:35;0.70;75.50
39655;DHT22;25336;59.944;11.010;2023-01-16T01:15:00;0.70;75.60
39655;DHT22;25336;59.944;11.010;2023-01-16T01:17:26;0.60;75.60
39655;DHT22;25336;59.944;11.010;2023-01-16T01:19:52;0.60;75.70
39655;DHT22;25336;59.944;11.010;2023-01-16T01:22:17;-0.20;75.30
39655;DHT22;25336;59.944;11.010;2023-01-16T01:24:47;0.60;76.20
39655;DHT22;25336;59.944;11.010;2023-01-16T01:27:13;0.60;76.00
39655;DHT22;25336;59.944;11.010;2023-01-16T01:29:38;0.60;76.00
39655;DHT22;25336;59.944;11.010;2023-01-16T01:32:04;0.60;76.10
39655;DHT22;25336;59.944;11.010;2023-01-16T01:34:32;0.60;76.10
39655;DHT22;25336;59.944;11.010;2023-01-16T01:37:03;1.60;76.90
39655;DHT22;25336;59.944;11.010;2023-01-16T01:39:29;0.60;77.20
39655;DHT22;25336;59.944;11.010;2023-01-16T01:41:55;0.60;76.50
39655;DHT22;25336;59.944;11.010;2023-01-16T01:44:54;0.60;76.50
39655;DHT22;25336;59.944;11.010;2023-01-16T01:47:25;0.50;76.50
39655;DHT22;25336;59.944;11.010;2023-01-16T01:49:52;0.60;76.70
39655;DHT22;25336;59.944;11.010;2023-01-16T01:52:20;0.60;76.70
39655;DHT22;25336;59.944;11.010;2023-01-16T01:54:53;2.30;77.80
39655;DHT22;25336;59.944;11.010;2023-01-16T01:57:26;0.60;76.70
39655;DHT22;25336;59.944;11.010;2023-01-16T02:00:03;0.60;76.70
39655;DHT22;25336;59.944;11.010;2023-01-16T02:02:33;0.60;76.70
39655;DHT22;25336;59.944;11.010;2023-01-16T02:04:59;0.60;76.70
39655;DHT22;25336;59.944;11.010;2023-01-16T02:07:27;0.70;76.70
39655;DHT22;25336;59.944;11.010;2023-01-16T02:10:01;0.70;76.60
39655;DHT22;25336;59.944;11.010;2023-01-16T02:12:28;0.70;76.60
39655;DHT22;25336;59.944;11.010;2023-01-16T02:14:54;0.70;76.50
39655;DHT22;25336;59.944;11.010;2023-01-16T02:17:21;0.70;76.50
39655;DHT22;25336;59.944;11.010;2023-01-16T02:20:25;2.00;77.30
39655;DHT22;25336;59.944;11.010;2023-01-16T02:26:30;0.70;76.60
39655;DHT22;25336;59.944;11.010;2023-01-16T02:34:52;0.80;76.80
39655;DHT22;25336;59.944;11.010;2023-01-16T02:37:47;0.80;76.90
39655;DHT22;25336;59.944;11.010;2023-01-16T02:40:38;0.80;77.70
39655;DHT22;25336;59.944;11.010;2023-01-16T02:46:15;0.90;76.80
39655;DHT22;25336;59.944;11.010;2023-01-16T02:49:10;0.90;76.80
39655;DHT22;25336;59.944;11.010;2023-01-16T02:54:38;0.90;76.50
39655;DHT22;25336;59.944;11.010;2023-01-16T02:57:13;0.90;76.50
39655;DHT22;25336;59.944;11.010;2023-01-16T02:59:41;0.90;76.30
39655;DHT22;25336;59.944;11.010;2023-01-16T03:02:07;2.20;77.10
39655;DHT22;25336;59.944;11.010;2023-01-16T03:04:40;0.90;76.20
39655;DHT22;25336;59.944;11.010;2023-01-16T03:18:22;0.90;76.10
39655;DHT22;25336;59.944;11.010;2023-01-16T03:21:09;0.90;76.00
39655;DHT22;25336;59.944;11.010;2023-01-16T03:23:59;0.90;76.10
39655;DHT22;25336;59.944;11.010;2023-01-16T03:26:50;0.90;76.00
39655;DHT22;25336;59.944;11.010;2023-01-16T03:29:31;1.90;76.60
39655;DHT22;25336;59.944;11.010;2023-01-16T03:34:39;0.90;75.90
39655;DHT22;25336;59.944;11.010;2023-01-16T03:37:24;0.90;75.90
39655;DHT22;25336;59.944;11.010;2023-01-16T03:39:56;0.90;75.90
39655;DHT22;25336;59.944;11.010;2023-01-16T03:42:28;2.10;76.80
39655;DHT22;25336;59.944;11.010;2023-01-16T03:44:59;0.90;75.90
39655;DHT22;25336;59.944;11.010;2023-01-16T03:47:31;0.80;75.90
39655;DHT22;25336;59.944;11.010;2023-01-16T03:50:03;0.80;75.90
39655;DHT22;25336;59.944;11.010;2023-01-16T03:52:47;0.80;76.00
39655;DHT22;25336;59.944;11.010;2023-01-16T03:55:27;-0.40;75.40
39655;DHT22;25336;59.944;11.010;2023-01-16T03:58:07;0.90;76.40
39655;DHT22;25336;59.944;11.010;2023-01-16T04:01:12;0.90;76.40
39655;DHT22;25336;59.944;11.010;2023-01-16T04:03:51;0.90;76.30
39655;DHT22;25336;59.944;11.010;2023-01-16T04:06:20;0.90;76.30
39655;DHT22;25336;59.944;11.010;2023-01-16T04:08:51;0.90;76.30
39655;DHT22;25336;59.944;11.010;2023-01-16T04:11:19;0.90;76.20
39655;DHT22;25336;59.944;11.010;2023-01-16T04:13:48;0.80;76.10
39655;DHT22;25336;59.944;11.010;2023-01-16T04:16:16;0.90;76.10
39655;DHT22;25336;59.944;11.010;2023-01-16T04:18:44;0.90;75.90
39655;DHT22;25336;59.944;11.010;2023-01-16T04:21:11;0.90;75.70
39655;DHT22;25336;59.944;11.010;2023-01-16T04:23:37;0.90;75.50
39655;DHT22;25336;59.944;11.010;2023-01-16T04:26:03;-0.50;74.50
39655;DHT22;25336;59.944;11.010;2023-01-16T04:28:28;0.90;75.40
39655;DHT22;25336;59.944;11.010;2023-01-16T04:30:54;0.80;75.30
39655;DHT22;25336;59.944;11.010;2023-01-16T04:33:19;0.80;75.40
39655;DHT22;25336;59.944;11.010;2023-01-16T04:35:45;0.80;75.50
39655;DHT22;25336;59.944;11.010;2023-01-16T04:38:11;0.80;75.70
39655;DHT22;25336;59.944;11.010;2023-01-16T04:40:37;0.80;75.80
39655;DHT22;25336;59.944;11.010;2023-01-16T04:43:03;0.80;75.90
39655;DHT22;25336;59.944;11.010;2023-01-16T04:45:29;0.80;75.90
39655;DHT22;25336;59.944;11.010;2023-01-16T04:47:54;0.80;75.90
39655;DHT22;25336;59.944;11.010;2023-01-16T04:50:20;0.80;75.90
39655;DHT22;25336;59.944;11.010;2023-01-16T04:52:46;0.80;76.00
39655;DHT22;25336;59.944;11.010;2023-01-16T04:55:12;-0.10;75.40
39655;DHT22;25336;59.944;11.010;2023-01-16T04:57:38;1.30;76.30
39655;DHT22;25336;59.944;11.010;2023-01-16T05:00:05;0.80;76.00
39655;DHT22;25336;59.944;11.010;2023-01-16T05:02:32;0.80;76.00
39655;DHT22;25336;59.944;11.010;2023-01-16T05:04:57;0.80;76.00
39655;DHT22;25336;59.944;11.010;2023-01-16T05:07:23;0.80;76.00
39655;DHT22;25336;59.944;11.010;2023-01-16T05:09:51;0.80;76.00
39655;DHT22;25336;59.944;11.010;2023-01-16T05:12:17;0.80;76.00
39655;DHT22;25336;59.944;11.010;2023-01-16T05:14:43;0.80;76.00
39655;DHT22;25336;59.944;11.010;2023-01-16T05:17:08;0.40;75.70
39655;DHT22;25336;59.944;11.010;2023-01-16T05:19:34;2.10;76.70
39655;DHT22;25336;59.944;11.010;2023-01-16T05:21:59;0.70;75.80
39655;DHT22;25336;59.944;11.010;2023-01-16T05:24:25;0.70;75.60
39655;DHT22;25336;59.944;11.010;2023-01-16T05:26:50;0.60;75.50
39655;DHT22;25336;59.944;11.010;2023-01-16T05:29:16;0.60;75.50
39655;DHT22;25336;59.944;11.010;2023-01-16T05:31:41;0.60;75.50
39655;DHT22;25336;59.944;11.010;2023-01-16T05:34:08;0.60;75.60
39655;DHT22;25336;59.944;11.010;2023-01-16T05:36:34;0.50;75.60
39655;DHT22;25336;59.944;11.010;2023-01-16T05:38:59;2.00;76.60
39655;DHT22;25336;59.944;11.010;2023-01-16T05:41:25;0.60;75.80
39655;DHT22;25336;59.944;11.010;2023-01-16T05:43:51;0.50;75.90
39655;DHT22;25336;59.944;11.010;2023-01-16T05:46:16;0.50;76.00
39655;DHT22;25336;59.944;11.010;2023-01-16T05:48:43;0.50;76.10
39655;DHT22;25336;59.944;11.010;2023-01-16T05:51:08;0.50;76.10
39655;DHT22;25336;59.944;11.010;2023-01-16T05:53:34;0.50;76.20
39655;DHT22;25336;59.944;11.010;2023-01-16T05:56:07;0.50;76.20
39655;DHT22;25336;59.944;11.010;2023-01-16T05:58:33;0.50;76.10
39655;DHT22;25336;59.944;11.010;2023-01-16T06:00:58;0.50;76.10
39655;DHT22;25336;59.944;11.010;2023-01-16T06:03:24;0.50;76.10
39655;DHT22;25336;59.944;11.010;2023-01-16T06:05:49;0.40;75.90
39655;DHT22;25336;59.944;11.010;2023-01-16T06:08:15;0.40;75.90
39655;DHT22;25336;59.944;11.010;2023-01-16T06:10:41;0.40;76.00
39655;DHT22;25336;59.944;11.010;2023-01-16T06:13:06;0.40;75.90
39655;DHT22;25336;59.944;11.010;2023-01-16T06:15:32;1.80;76.80
39655;DHT22;25336;59.944;11.010;2023-01-16T06:17:57;0.40;75.90
39655;DHT22;25336;59.944;11.010;2023-01-16T06:20:23;0.30;75.80
39655;DHT22;25336;59.944;11.010;2023-01-16T06:22:49;0.30;75.90
39655;DHT22;25336;59.944;11.010;2023-01-16T06:25:15;0.30;75.90
39655;DHT22;25336;59.944;11.010;2023-01-16T06:27:40;0.30;76.10
39655;DHT22;25336;59.944;11.010;2023-01-16T06:30:06;0.30;76.20
39655;DHT22;25336;59.944;11.010;2023-01-16T06:32:32;0.30;76.30
39655;DHT22;25336;59.944;11.010;2023-01-16T06:34:58;0.30;76.30
39655;DHT22;25336;59.944;11.010;2023-01-16T06:37:23;0.30;76.30
39655;DHT22;25336;59.944;11.010;2023-01-16T06:39:49;0.20;76.30
39655;DHT22;25336;59.944;11.010;2023-01-16T06:42:15;0.20;76.30
39655;DHT22;25336;59.944;11.010;2023-01-16T06:44:40;2.00;77.50
39655;DHT22;25336;59.944;11.010;2023-01-16T06:47:06;0.20;76.20
39655;DHT22;25336;59.944;11.010;2023-01-16T06:49:34;-0.20;75.90
39655;DHT22;25336;59.944;11.010;2023-01-16T06:51:59;0.20;76.20
39655;DHT22;25336;59.944;11.010;2023-01-16T06:54:25;0.20;76.10
39655;DHT22;25336;59.944;11.010;2023-01-16T06:56:51;0.20;76.10
39655;DHT22;25336;59.944;11.010;2023-01-16T06:59:17;0.10;76.00
39655;DHT22;25336;59.944;11.010;2023-01-16T07:01:42;0.20;76.20
39655;DHT22;25336;59.944;11.010;2023-01-16T07:04:08;0.10;76.20
39655;DHT22;25336;59.944;11.010;2023-01-16T07:06:35;0.10;76.40
39655;DHT22;25336;59.944;11.010;2023-01-16T07:09:01;0.10;76.50
39655;DHT22;25336;59.944;11.010;2023-01-16T07:11:26;1.50;77.70
39655;DHT22;25336;59.944;11.010;2023-01-16T07:13:52;0.20;77.00
39655;DHT22;25336;59.944;11.010;2023-01-16T07:16:40;0.20;77.20
39655;DHT22;25336;59.944;11.010;2023-01-16T07:19:24;0.20;77.20
39655;DHT22;25336;59.944;11.010;2023-01-16T07:22:12;0.30;77.20
39655;DHT22;25336;59.944;11.010;2023-01-16T07:24:57;0.30;77.10
39655;DHT22;25336;59.944;11.010;2023-01-16T07:27:24;0.20;77.00
39655;DHT22;25336;59.944;11.010;2023-01-16T07:29:49;0.20;76.90
39655;DHT22;25336;59.944;11.010;2023-01-16T07:32:15;0.30;77.00
39655;DHT22;25336;59.944;11.010;2023-01-16T07:34:41;0.20;76.90
39655;DHT22;25336;59.944;11.010;2023-01-16T07:37:07;0.30;77.00
39655;DHT22;25336;59.944;11.010;2023-01-16T07:39:36;0.30;77.00
39655;DHT22;25336;59.944;11.010;2023-01-16T07:42:06;0.30;76.90
39655;DHT22;25336;59.944;11.010;2023-01-16T07:44:32;0.30;76.90
39655;DHT22;25336;59.944;11.010;2023-01-16T07:46:58;0.30;77.00
39655;DHT22;25336;59.944;11.010;2023-01-16T07:49:23;0.30;77.00
39655;DHT22;25336;59.944;11.010;2023-01-16T07:51:49;2.00;78.00
39655;DHT22;25336;59.944;11.010;2023-01-16T07:54:15;0.40;76.90
39655;DHT22;25336;59.944;11.010;2023-01-16T07:56:40;0.40;76.80
39655;DHT22;25336;59.944;11.010;2023-01-16T07:59:07;0.40;76.60
39655;DHT22;25336;59.944;11.010;2023-01-16T08:01:32;0.40;76.40
39655;DHT22;25336;59.944;11.010;2023-01-16T08:03:58;0.30;76.20
39655;DHT22;25336;59.944;11.010;2023-01-16T08:06:24;0.40;76.10
39655;DHT22;25336;59.944;11.010;2023-01-16T08:08:49;0.30;75.90
39655;DHT22;25336;59.944;11.010;2023-01-16T08:11:15;0.30;75.90
39655;DHT22;25336;59.944;11.010;2023-01-16T08:14:00;0.30;75.90
39655;DHT22;25336;59.944;11.010;2023-01-16T08:16:25;0.30;76.00
39655;DHT22;25336;59.944;11.010;2023-01-16T08:18:51;0.30;76.10
39655;DHT22;25336;59.944;11.010;2023-01-16T08:21:17;0.30;76.20
39655;DHT22;25336;59.944;11.010;2023-01-16T08:23:43;0.30;76.30
39655;DHT22;25336;59.944;11.010;2023-01-16T08:26:10;-0.40;75.90
39655;DHT22;25336;59.944;11.010;2023-01-16T08:28:36;0.30;76.40
39655;DHT22;25336;59.944;11.010;2023-01-16T08:31:06;0.30;76.40
39655;DHT22;25336;59.944;11.010;2023-01-16T08:33:41;0.30;76.50
39655;DHT22;25336;59.944;11.010;2023-01-16T08:36:10;0.30;76.40
39655;DHT22;25336;59.944;11.010;2023-01-16T08:38:36;0.30;76.50
39655;DHT22;25336;59.944;11.010;2023-01-16T08:41:02;0.30;76.40
39655;DHT22;25336;59.944;11.010;2023-01-16T08:43:28;0.30;76.30
39655;DHT22;25336;59.944;11.010;2023-01-16T08:46:21;1.80;77.20
39655;DHT22;25336;59.944;11.010;2023-01-16T08:49:10;0.40;76.00
39655;DHT22;25336;59.944;11.010;2023-01-16T08:51:56;0.30;75.80
39655;DHT22;25336;59.944;11.010;2023-01-16T08:54:22;0.30;75.60
39655;DHT22;25336;59.944;11.010;2023-01-16T08:56:47;0.30;75.50
39655;DHT22;25336;59.944;11.010;2023-01-16T08:59:13;0.30;75.30
39655;DHT22;25336;59.944;11.010;2023-01-16T09:01:39;0.20;75.10
39655;DHT22;25336;59.944;11.010;2023-01-16T09:04:07;0.30;75.10
39655;DHT22;25336;59.944;11.010;2023-01-16T09:06:33;0.30;75.00
39655;DHT22;25336;59.944;11.010;2023-01-16T09:09:05;0.30;74.90
39655;DHT22;25336;59.944;11.010;2023-01-16T09:11:32;0.20;75.10
39655;DHT22;25336;59.944;11.010;2023-01-16T09:14:16;0.20;74.90
39655;DHT22;25336;59.944;11.010;2023-01-16T09:16:42;-1.20;74.10
39655;DHT22;25336;59.944;11.010;2023-01-16T09:19:08;0.20;75.00
39655;DHT22;25336;59.944;11.010;2023-01-16T09:21:33;0.20;75.00
39655;DHT22;25336;59.944;11.010;2023-01-16T09:23:59;0.20;75.10
39655;DHT22;25336;59.944;11.010;2023-01-16T09:26:24;0.20;75.20
39655;DHT22;25336;59.944;11.010;2023-01-16T09:28:50;0.20;75.10
39655;DHT22;25336;59.944;11.010;2023-01-16T09:31:16;0.20;75.10
39655;DHT22;25336;59.944;11.010;2023-01-16T09:33:41;0.20;75.10
39655;DHT22;25336;59.944;11.010;2023-01-16T09:36:07;0.20;75.20
39655;DHT22;25336;59.944;11.010;2023-01-16T09:38:33;0.20;74.90
39655;DHT22;25336;59.944;11.010;2023-01-16T09:40:59;0.20;74.90
39655;DHT22;25336;59.944;11.010;2023-01-16T09:43:37;0.20;75.60
39655;DHT22;25336;59.944;11.010;2023-01-16T09:46:13;0.20;74.70
39655;DHT22;25336;59.944;11.010;2023-01-16T09:48:57;0.20;74.70
39655;DHT22;25336;59.944;11.010;2023-01-16T09:51:39;0.20;74.90
39655;DHT22;25336;59.944;11.010;2023-01-16T09:54:16;0.20;75.00
39655;DHT22;25336;59.944;11.010;2023-01-16T09:57:08;0.20;75.20
39655;DHT22;25336;59.944;11.010;2023-01-16T09:59:55;0.20;75.30
39655;DHT22;25336;59.944;11.010;2023-01-16T10:02:26;0.20;75.30
39655;DHT22;25336;59.944;11.010;2023-01-16T10:04:54;0.20;75.40
39655;DHT22;25336;59.944;11.010;2023-01-16T10:16:24;0.30;75.50
39655;DHT22;25336;59.944;11.010;2023-01-16T10:21:51;0.30;75.50
39655;DHT22;25336;59.944;11.010;2023-01-16T10:24:45;0.30;75.50
39655;DHT22;25336;59.944;11.010;2023-01-16T10:33:21;-0.20;74.70
39655;DHT22;25336;59.944;11.010;2023-01-16T10:35:49;0.40;75.20
39655;DHT22;25336;59.944;11.010;2023-01-16T10:38:33;0.40;75.00
39655;DHT22;25336;59.944;11.010;2023-01-16T10:41:19;0.40;74.80
39655;DHT22;25336;59.944;11.010;2023-01-16T10:47:07;0.40;74.80
39655;DHT22;25336;59.944;11.010;2023-01-16T10:49:52;0.40;74.90
39655;DHT22;25336;59.944;11.010;2023-01-16T10:52:17;0.40;74.80
39655;DHT22;25336;59.944;11.010;2023-01-16T10:54:43;0.40;74.80
39655;DHT22;25336;59.944;11.010;2023-01-16T10:57:17;0.40;74.80
39655;DHT22;25336;59.944;11.010;2023-01-16T10:59:44;0.40;75.00
39655;DHT22;25336;59.944;11.010;2023-01-16T11:02:17;0.50;75.10
39655;DHT22;25336;59.944;11.010;2023-01-16T11:04:46;0.50;75.30
39655;DHT22;25336;59.944;11.010;2023-01-16T11:07:14;0.50;75.40
39655;DHT22;25336;59.944;11.010;2023-01-16T11:09:43;0.50;75.40
39655;DHT22;25336;59.944;11.010;2023-01-16T11:12:16;0.50;75.40
39655;DHT22;25336;59.944;11.010;2023-01-16T11:15:07;0.60;75.50
39655;DHT22;25336;59.944;11.010;2023-01-16T11:17:53;0.70;75.40
39655;DHT22;25336;59.944;11.010;2023-01-16T11:20:37;2.10;76.00
39655;DHT22;25336;59.944;11.010;2023-01-16T11:23:18;0.70;75.10
39655;DHT22;25336;59.944;11.010;2023-01-16T11:25:45;0.70;74.90
39655;DHT22;25336;59.944;11.010;2023-01-16T11:28:28;0.70;75.00
39655;DHT22;25336;59.944;11.010;2023-01-16T11:31:01;0.70;75.10
39655;DHT22;25336;59.944;11.010;2023-01-16T11:33:37;0.80;75.40
39655;DHT22;25336;59.944;11.010;2023-01-16T11:36:04;0.80;75.30
39655;DHT22;25336;59.944;11.010;2023-01-16T11:38:34;0.80;75.40
39655;DHT22;25336;59.944;11.010;2023-01-16T11:41:02;0.80;75.30
39655;DHT22;25336;59.944;11.010;2023-01-16T11:43:29;0.90;75.30
39655;DHT22;25336;59.944;11.010;2023-01-16T11:46:33;0.80;75.30
39655;DHT22;25336;59.944;11.010;2023-01-16T11:49:01;0.90;75.50
39655;DHT22;25336;59.944;11.010;2023-01-16T11:51:32;0.90;75.70
39655;DHT22;25336;59.944;11.010;2023-01-16T11:54:00;1.00;75.80
39655;DHT22;25336;59.944;11.010;2023-01-16T12:08:56;0.90;75.00
39655;DHT22;25336;59.944;11.010;2023-01-16T12:14:14;1.20;75.30
39655;DHT22;25336;59.944;11.010;2023-01-16T12:20:04;1.30;75.70
39655;DHT22;25336;59.944;11.010;2023-01-16T12:22:50;1.40;75.80
39655;DHT22;25336;59.944;11.010;2023-01-16T12:25:41;1.50;76.30
39655;DHT22;25336;59.944;11.010;2023-01-16T12:28:15;1.50;75.70
39655;DHT22;25336;59.944;11.010;2023-01-16T12:33:41;1.50;75.90
39655;DHT22;25336;59.944;11.010;2023-01-16T12:39:08;1.60;75.90
39655;DHT22;25336;59.944;11.010;2023-01-16T12:41:46;1.70;76.50
39655;DHT22;25336;59.944;11.010;2023-01-16T12:45:03;2.80;76.30
39655;DHT22;25336;59.944;11.010;2023-01-16T12:48:05;1.80;75.60
39655;DHT22;25336;59.944;11.010;2023-01-16T12:53:14;1.80;75.10
39655;DHT22;25336;59.944;11.010;2023-01-16T12:56:02;1.80;74.80
39655;DHT22;25336;59.944;11.010;2023-01-16T12:58:40;1.80;74.20
39655;DHT22;25336;59.944;11.010;2023-01-16T13:01:27;1.80;73.90
39655;DHT22;25336;59.944;11.010;2023-01-16T13:06:42;1.70;73.30
39655;DHT22;25336;59.944;11.010;2023-01-16T13:12:18;1.60;73.30
39655;DHT22;25336;59.944;11.010;2023-01-16T13:15:11;1.60;73.50
39655;DHT22;25336;59.944;11.010;2023-01-16T13:18:04;1.60;73.70
39655;DHT22;25336;59.944;11.010;2023-01-16T13:20:31;1.60;73.60
39655;DHT22;25336;59.944;11.010;2023-01-16T13:23:24;1.50;73.50
39655;DHT22;25336;59.944;11.010;2023-01-16T13:26:11;1.50;73.60
39655;DHT22;25336;59.944;11.010;2023-01-16T13:31:19;1.40;73.70
39655;DHT22;25336;59.944;11.010;2023-01-16T13:33:49;1.40;73.80
39655;DHT22;25336;59.944;11.010;2023-01-16T13:36:51;1.40;73.90
39655;DHT22;25336;59.944;11.010;2023-01-16T13:39:52;1.40;73.90
39655;DHT22;25336;59.944;11.010;2023-01-16T13:42:24;1.40;73.80
39655;DHT22;25336;59.944;11.010;2023-01-16T13:44:58;1.30;73.90
39655;DHT22;25336;59.944;11.010;2023-01-16T13:47:44;0.40;72.80
39655;DHT22;25336;59.944;11.010;2023-01-16T13:50:47;1.30;73.20
39655;DHT22;25336;59.944;11.010;2023-01-16T13:53:15;1.30;73.40
39655;DHT22;25336;59.944;11.010;2023-01-16T13:55:41;1.30;73.60
39655;DHT22;25336;59.944;11.010;2023-01-16T13:58:26;1.20;73.10
39655;DHT22;25336;59.944;11.010;2023-01-16T14:01:03;-0.30;72.00
39655;DHT22;25336;59.944;11.010;2023-01-16T14:03:31;1.10;72.90
39655;DHT22;25336;59.944;11.010;2023-01-16T14:06:16;1.10;73.10
39655;DHT22;25336;59.944;11.010;2023-01-16T14:09:13;1.00;73.00
39655;DHT22;25336;59.944;11.010;2023-01-16T14:23:30;0.80;73.40
39655;DHT22;25336;59.944;11.010;2023-01-16T14:26:32;0.80;73.60
39655;DHT22;25336;59.944;11.010;2023-01-16T14:29:01;0.80;73.50
39655;DHT22;25336;59.944;11.010;2023-01-16T14:32:05;0.80;73.40
39655;DHT22;25336;59.944;11.010;2023-01-16T14:37:19;0.70;73.40
39655;DHT22;25336;59.944;11.010;2023-01-16T14:39:47;0.60;73.10
39655;DHT22;25336;59.944;11.010;2023-01-16T14:42:26;0.60;73.00
39655;DHT22;25336;59.944;11.010;2023-01-16T14:51:06;0.50;73.90
39655;DHT22;25336;59.944;11.010;2023-01-16T14:54:06;-0.90;73.20
39655;DHT22;25336;59.944;11.010;2023-01-16T14:57:02;0.50;74.40
39655;DHT22;25336;59.944;11.010;2023-01-16T14:59:36;0.40;74.50
39655;DHT22;25336;59.944;11.010;2023-01-16T15:02:11;0.40;74.60
39655;DHT22;25336;59.944;11.010;2023-01-16T15:08:16;0.40;75.00
39655;DHT22;25336;59.944;11.010;2023-01-16T15:10:41;0.40;74.90
39655;DHT22;25336;59.944;11.010;2023-01-16T15:13:28;0.40;74.80
39655;DHT22;25336;59.944;11.010;2023-01-16T15:16:17;0.50;75.00
39655;DHT22;25336;59.944;11.010;2023-01-16T15:18:43;0.40;75.20
39655;DHT22;25336;59.944;11.010;2023-01-16T15:21:28;0.40;75.30
39655;DHT22;25336;59.944;11.010;2023-01-16T15:24:20;0.60;75.70
39655;DHT22;25336;59.944;11.010;2023-01-16T15:26:54;0.50;75.70
39655;DHT22;25336;59.944;11.010;2023-01-16T15:32:04;0.50;76.00
39655;DHT22;25336;59.944;11.010;2023-01-16T15:34:34;0.50;76.00
39655;DHT22;25336;59.944;11.010;2023-01-16T15:37:00;0.50;76.10
39655;DHT22;25336;59.944;11.010;2023-01-16T15:48:15;0.60;76.60
39655;DHT22;25336;59.944;11.010;2023-01-16T15:53:18;0.70;76.70
39655;DHT22;25336;59.944;11.010;2023-01-16T15:55:47;0.70;76.80
39655;DHT22;25336;59.944;11.010;2023-01-16T15:58:19;0.70;76.80
39655;DHT22;25336;59.944;11.010;2023-01-16T16:00:54;0.70;76.80
39655;DHT22;25336;59.944;11.010;2023-01-16T16:03:22;0.70;76.90
39655;DHT22;25336;59.944;11.010;2023-01-16T16:05:59;-0.60;76.00
39655;DHT22;25336;59.944;11.010;2023-01-16T16:08:31;0.80;76.90
39655;DHT22;25336;59.944;11.010;2023-01-16T16:10:59;0.80;76.90
39655;DHT22;25336;59.944;11.010;2023-01-16T16:13:45;0.80;77.00
39655;DHT22;25336;59.944;11.010;2023-01-16T16:16:20;0.80;77.00
39655;DHT22;25336;59.944;11.010;2023-01-16T16:19:06;0.80;77.20
39655;DHT22;25336;59.944;11.010;2023-01-16T16:21:44;0.90;77.20
39655;DHT22;25336;59.944;11.010;2023-01-16T16:24:35;0.90;77.20
39655;DHT22;25336;59.944;11.010;2023-01-16T16:27:06;0.90;77.20
39655;DHT22;25336;59.944;11.010;2023-01-16T16:29:34;0.90;78.10
39655;DHT22;25336;59.944;11.010;2023-01-16T16:32:05;0.90;77.40
39655;DHT22;25336;59.944;11.010;2023-01-16T16:34:35;0.90;77.40
39655;DHT22;25336;59.944;11.010;2023-01-16T16:37:02;1.00;77.30
39655;DHT22;25336;59.944;11.010;2023-01-16T16:41:59;1.00;77.60
39655;DHT22;25336;59.944;11.010;2023-01-16T16:45:08;1.00;77.30
39655;DHT22;25336;59.944;11.010;2023-01-16T16:47:35;1.10;77.00
39655;DHT22;25336;59.944;11.010;2023-01-16T16:50:23;1.10;77.00
39655;DHT22;25336;59.944;11.010;2023-01-16T16:52:48;1.70;77.20
39655;DHT22;25336;59.944;11.010;2023-01-16T16:55:40;1.10;76.70
39655;DHT22;25336;59.944;11.010;2023-01-16T16:58:27;1.10;76.70
39655;DHT22;25336;59.944;11.010;2023-01-16T17:00:53;1.10;76.60
39655;DHT22;25336;59.944;11.010;2023-01-16T17:03:21;2.60;77.60
39655;DHT22;25336;59.944;11.010;2023-01-16T17:05:48;1.00;76.70
39655;DHT22;25336;59.944;11.010;2023-01-16T17:08:20;1.00;76.60
39655;DHT22;25336;59.944;11.010;2023-01-16T17:10:46;1.00;76.70
39655;DHT22;25336;59.944;11.010;2023-01-16T17:13:15;1.00;76.70
39655;DHT22;25336;59.944;11.010;2023-01-16T17:15:42;1.00;76.70
39655;DHT22;25336;59.944;11.010;2023-01-16T17:18:12;1.00;76.70
39655;DHT22;25336;59.944;11.010;2023-01-16T17:20:38;-0.40;75.80
39655;DHT22;25336;59.944;11.010;2023-01-16T17:23:12;1.00;76.60
39655;DHT22;25336;59.944;11.010;2023-01-16T17:25:39;1.00;76.60
39655;DHT22;25336;59.944;11.010;2023-01-16T17:28:05;1.00;76.70
39655;DHT22;25336;59.944;11.010;2023-01-16T17:30:32;1.00;76.70
39655;DHT22;25336;59.944;11.010;2023-01-16T17:32:59;1.00;76.70
39655;DHT22;25336;59.944;11.010;2023-01-16T17:35:34;1.00;76.70
39655;DHT22;25336;59.944;11.010;2023-01-16T17:37:59;1.00;76.70
39655;DHT22;25336;59.944;11.010;2023-01-16T17:40:25;0.90;76.70
39655;DHT22;25336;59.944;11.010;2023-01-16T17:42:51;0.90;76.70
39655;DHT22;25336;59.944;11.010;2023-01-16T17:45:42;0.90;76.70
39655;DHT22;25336;59.944;11.010;2023-01-16T17:48:26;0.90;76.70
39655;DHT22;25336;59.944;11.010;2023-01-16T17:50:53;0.90;76.80
39655;DHT22;25336;59.944;11.010;2023-01-16T17:53:21;0.90;76.80
39655;DHT22;25336;59.944;11.010;2023-01-16T17:55:48;0.90;77.00
39655;DHT22;25336;59.944;11.010;2023-01-16T18:01:17;0.90;77.20
39655;DHT22;25336;59.944;11.010;2023-01-16T18:03:48;0.90;77.20
39655;DHT22;25336;59.944;11.010;2023-01-16T18:06:38;0.80;77.00
39655;DHT22;25336;59.944;11.010;2023-01-16T18:09:05;0.90;77.40
39655;DHT22;25336;59.944;11.010;2023-01-16T18:11:37;0.80;76.90